sensor_id;sensor_type;location;lat;lon;timestamp;pressure;altitude;pressure_sealevel;temperature;humidity
36600;BME280;35385;55.668;37.508;2022-08-21T00:00:39;100120.19;;;18.65;41.97
36600;BME280;35385;55.668;37.508;2022-08-21T00:01:40;100085.66;;;18.51;42.15
36600;BME280;35385;55.668;37.508;2022-08-21T00:02:51;100055.03;;;18.34;41.97
36600;BME280;35385;55.668;37.508;2022-08-21T00:03:53;100109.03;;;18.60;42.03
36600;BME280;35385;55.668;37.508;2022-08-21T00:04:54;100064.16;;;18.33;42.06
36600;BME280;35385;55.668;37.508;2022-08-21T00:05:54;100062.44;;;18.24;42.34
36600;BME280;35385;55.668;37.508;2022-08-21T00:06:56;100110.06;;;18.59;42.10
36600;BME280;35385;55.668;37.508;2022-08-21T00:07:56;100112.41;;;18.62;42.12
36600;BME280;35385;55.668;37.508;2022-08-21T00:08:57;100122.22;;;18.63;42.23
36600;BME280;35385;55.668;37.508;2022-08-21T00:09:57;100110.91;;;18.60;42.18
36600;BME280;35385;55.668;37.508;2022-08-21T00:10:58;100040.47;;;18.19;42.03
36600;BME280;35385;55.668;37.508;2022-08-21T00:11:58;100106.66;;;18.65;41.96
36600;BME280;35385;55.668;37.508;2022-08-21T00:13:00;100120.16;;;18.57;41.93
36600;BME280;35385;55.668;37.508;2022-08-21T00:14:04;100096.13;;;18.46;42.59
36600;BME280;35385;55.668;37.508;2022-08-21T00:15:09;100112.06;;;18.65;41.97
36600;BME280;35385;55.668;37.508;2022-08-21T00:16:10;100118.31;;;18.66;41.98
36600;BME280;35385;55.668;37.508;2022-08-21T00:17:11;100046.75;;;18.28;42.19
36600;BME280;35385;55.668;37.508;2022-08-21T00:18:12;100110.69;;;18.61;42.03
36600;BME280;35385;55.668;37.508;2022-08-21T00:19:13;100103.25;;;18.55;42.24
36600;BME280;35385;55.668;37.508;2022-08-21T00:20:14;100054.00;;;18.27;42.13
36600;BME280;35385;55.668;37.508;2022-08-21T00:21:16;100056.88;;;18.26;42.09
36600;BME280;35385;55.668;37.508;2022-08-21T00:22:16;100119.47;;;18.55;42.17
36600;BME280;35385;55.668;37.508;2022-08-21T00:23:17;100115.56;;;18.50;42.12
36600;BME280;35385;55.668;37.508;2022-08-21T00:24:19;100121.31;;;18.47;42.37
36600;BME280;35385;55.668;37.508;2022-08-21T00:25:21;100115.88;;;18.47;42.44
36600;BME280;35385;55.668;37.508;2022-08-21T00:26:21;100111.31;;;18.47;42.38
36600;BME280;35385;55.668;37.508;2022-08-21T00:27:22;100115.19;;;18.36;42.45
36600;BME280;35385;55.668;37.508;2022-08-21T00:28:22;100121.81;;;18.42;42.27
36600;BME280;35385;55.668;37.508;2022-08-21T00:29:23;100053.13;;;18.02;42.49
36600;BME280;35385;55.668;37.508;2022-08-21T00:30:25;100117.09;;;18.44;42.57
36600;BME280;35385;55.668;37.508;2022-08-21T00:31:26;100035.88;;;17.95;42.59
36600;BME280;35385;55.668;37.508;2022-08-21T00:32:27;100114.19;;;18.37;42.42
36600;BME280;35385;55.668;37.508;2022-08-21T00:33:28;100111.16;;;18.41;42.74
36600;BME280;35385;55.668;37.508;2022-08-21T00:34:28;100112.66;;;18.35;42.30
36600;BME280;35385;55.668;37.508;2022-08-21T00:35:32;100113.50;;;18.35;42.58
36600;BME280;35385;55.668;37.508;2022-08-21T00:36:34;100114.34;;;18.36;42.50
36600;BME280;35385;55.668;37.508;2022-08-21T00:37:35;100116.75;;;18.39;42.51
36600;BME280;35385;55.668;37.508;2022-08-21T00:38:36;100098.44;;;18.33;42.46
36600;BME280;35385;55.668;37.508;2022-08-21T00:39:37;100107.59;;;18.32;42.51
36600;BME280;35385;55.668;37.508;2022-08-21T00:40:47;100117.59;;;18.48;42.51
36600;BME280;35385;55.668;37.508;2022-08-21T00:41:48;100045.66;;;18.05;42.45
36600;BME280;35385;55.668;37.508;2022-08-21T00:42:49;100011.00;;;17.84;42.50
36600;BME280;35385;55.668;37.508;2022-08-21T00:43:50;100110.00;;;18.43;42.29
36600;BME280;35385;55.668;37.508;2022-08-21T00:44:51;100108.28;;;18.42;42.35
36600;BME280;35385;55.668;37.508;2022-08-21T00:45:52;100016.94;;;17.95;42.40
36600;BME280;35385;55.668;37.508;2022-08-21T00:46:53;100079.34;;;18.26;42.41
36600;BME280;35385;55.668;37.508;2022-08-21T00:47:54;100086.31;;;18.29;42.59
36600;BME280;35385;55.668;37.508;2022-08-21T00:48:55;100096.09;;;18.38;42.30
36600;BME280;35385;55.668;37.508;2022-08-21T00:49:56;100090.00;;;18.28;42.59
36600;BME280;35385;55.668;37.508;2022-08-21T00:51:05;100100.81;;;18.28;42.80
36600;BME280;35385;55.668;37.508;2022-08-21T00:52:09;100103.00;;;18.32;42.40
36600;BME280;35385;55.668;37.508;2022-08-21T00:53:11;100037.34;;;17.90;42.51
36600;BME280;35385;55.668;37.508;2022-08-21T00:54:13;99975.06;;;17.49;42.68
36600;BME280;35385;55.668;37.508;2022-08-21T00:55:14;100103.00;;;18.24;42.50
36600;BME280;35385;55.668;37.508;2022-08-21T00:56:16;100086.25;;;18.13;42.70
36600;BME280;35385;55.668;37.508;2022-08-21T00:57:27;100102.84;;;18.26;42.66
36600;BME280;35385;55.668;37.508;2022-08-21T00:58:29;100116.53;;;18.24;42.74
36600;BME280;35385;55.668;37.508;2022-08-21T00:59:34;100110.59;;;18.21;42.62
36600;BME280;35385;55.668;37.508;2022-08-21T01:00:39;100107.22;;;18.19;42.82
36600;BME280;35385;55.668;37.508;2022-08-21T01:01:40;100036.81;;;17.70;42.95
36600;BME280;35385;55.668;37.508;2022-08-21T01:02:41;100107.34;;;18.09;43.06
36600;BME280;35385;55.668;37.508;2022-08-21T01:03:42;100109.06;;;18.10;43.19
36600;BME280;35385;55.668;37.508;2022-08-21T01:04:43;100104.13;;;18.06;42.96
36600;BME280;35385;55.668;37.508;2022-08-21T01:05:44;100100.41;;;18.07;43.31
36600;BME280;35385;55.668;37.508;2022-08-21T01:06:46;100115.78;;;18.06;43.11
36600;BME280;35385;55.668;37.508;2022-08-21T01:07:46;100048.78;;;17.67;43.00
36600;BME280;35385;55.668;37.508;2022-08-21T01:08:47;100069.94;;;17.80;43.20
36600;BME280;35385;55.668;37.508;2022-08-21T01:09:48;100094.63;;;17.93;43.31
36600;BME280;35385;55.668;37.508;2022-08-21T01:10:49;100114.59;;;18.00;43.21
36600;BME280;35385;55.668;37.508;2022-08-21T01:11:50;100110.16;;;17.91;43.40
36600;BME280;35385;55.668;37.508;2022-08-21T01:12:55;100109.19;;;18.00;43.40
36600;BME280;35385;55.668;37.508;2022-08-21T01:13:56;100102.94;;;18.00;43.25
36600;BME280;35385;55.668;37.508;2022-08-21T01:14:56;100111.06;;;18.00;43.26
36600;BME280;35385;55.668;37.508;2022-08-21T01:15:59;100119.00;;;18.01;43.42
36600;BME280;35385;55.668;37.508;2022-08-21T01:17:01;100111.50;;;17.87;43.20
36600;BME280;35385;55.668;37.508;2022-08-21T01:18:05;100040.56;;;17.51;43.64
36600;BME280;35385;55.668;37.508;2022-08-21T01:19:06;100046.81;;;17.52;43.46
36600;BME280;35385;55.668;37.508;2022-08-21T01:20:11;100089.00;;;17.79;43.39
36600;BME280;35385;55.668;37.508;2022-08-21T01:22:14;100094.72;;;17.76;44.09
36600;BME280;35385;55.668;37.508;2022-08-21T01:23:15;100102.41;;;17.88;43.74
36600;BME280;35385;55.668;37.508;2022-08-21T01:24:15;100095.00;;;17.64;43.92
36600;BME280;35385;55.668;37.508;2022-08-21T01:25:17;100100.63;;;17.71;43.92
36600;BME280;35385;55.668;37.508;2022-08-21T01:26:23;100051.97;;;17.37;43.86
36600;BME280;35385;55.668;37.508;2022-08-21T01:27:24;100099.78;;;17.71;43.85
36600;BME280;35385;55.668;37.508;2022-08-21T01:28:24;100019.31;;;17.22;43.98
36600;BME280;35385;55.668;37.508;2022-08-21T01:29:39;100038.28;;;17.30;44.22
36600;BME280;35385;55.668;37.508;2022-08-21T01:30:43;100015.59;;;17.15;44.00
36600;BME280;35385;55.668;37.508;2022-08-21T01:31:44;100098.84;;;17.62;44.15
36600;BME280;35385;55.668;37.508;2022-08-21T01:32:45;100104.38;;;17.52;44.52
36600;BME280;35385;55.668;37.508;2022-08-21T01:33:46;100081.38;;;17.48;44.37
36600;BME280;35385;55.668;37.508;2022-08-21T01:34:49;100092.72;;;17.52;44.37
36600;BME280;35385;55.668;37.508;2022-08-21T01:35:49;100016.84;;;17.03;44.51
36600;BME280;35385;55.668;37.508;2022-08-21T01:36:50;100115.03;;;17.54;44.39
36600;BME280;35385;55.668;37.508;2022-08-21T01:37:51;100097.50;;;17.58;44.54
36600;BME280;35385;55.668;37.508;2022-08-21T01:38:51;100100.50;;;17.55;44.06
36600;BME280;35385;55.668;37.508;2022-08-21T01:39:52;100110.38;;;17.64;44.36
36600;BME280;35385;55.668;37.508;2022-08-21T01:40:52;100101.53;;;17.62;44.24
36600;BME280;35385;55.668;37.508;2022-08-21T01:41:53;100019.28;;;17.14;44.16
36600;BME280;35385;55.668;37.508;2022-08-21T01:42:54;100110.66;;;17.61;44.40
36600;BME280;35385;55.668;37.508;2022-08-21T01:43:54;100109.66;;;17.62;44.62
36600;BME280;35385;55.668;37.508;2022-08-21T01:44:55;100078.84;;;17.47;44.28
36600;BME280;35385;55.668;37.508;2022-08-21T01:45:56;100115.72;;;17.56;44.43
36600;BME280;35385;55.668;37.508;2022-08-21T01:46:59;100103.38;;;17.53;44.20
36600;BME280;35385;55.668;37.508;2022-08-21T01:48:00;100035.50;;;17.14;44.40
36600;BME280;35385;55.668;37.508;2022-08-21T01:49:01;100096.13;;;17.54;44.76
36600;BME280;35385;55.668;37.508;2022-08-21T01:50:05;100117.72;;;17.54;44.45
36600;BME280;35385;55.668;37.508;2022-08-21T01:51:05;100117.88;;;17.52;44.47
36600;BME280;35385;55.668;37.508;2022-08-21T01:52:06;100098.28;;;17.50;44.25
36600;BME280;35385;55.668;37.508;2022-08-21T01:53:07;100088.06;;;17.36;44.35
36600;BME280;35385;55.668;37.508;2022-08-21T01:54:07;100033.03;;;17.03;44.58
36600;BME280;35385;55.668;37.508;2022-08-21T01:55:10;100102.00;;;17.49;44.30
36600;BME280;35385;55.668;37.508;2022-08-21T01:56:13;100105.00;;;17.46;44.47
36600;BME280;35385;55.668;37.508;2022-08-21T01:57:14;100101.09;;;17.41;44.47
36600;BME280;35385;55.668;37.508;2022-08-21T01:58:15;100115.66;;;17.48;44.57
36600;BME280;35385;55.668;37.508;2022-08-21T01:59:15;100037.28;;;17.06;44.40
36600;BME280;35385;55.668;37.508;2022-08-21T02:00:19;100113.59;;;17.42;44.60
36600;BME280;35385;55.668;37.508;2022-08-21T02:01:22;100094.63;;;17.33;44.70
36600;BME280;35385;55.668;37.508;2022-08-21T02:02:23;100091.38;;;17.22;44.73
36600;BME280;35385;55.668;37.508;2022-08-21T02:03:23;100106.19;;;17.44;44.55
36600;BME280;35385;55.668;37.508;2022-08-21T02:04:24;100087.59;;;17.41;44.32
36600;BME280;35385;55.668;37.508;2022-08-21T02:05:24;100096.03;;;17.38;44.31
36600;BME280;35385;55.668;37.508;2022-08-21T02:06:26;100076.88;;;17.23;44.39
36600;BME280;35385;55.668;37.508;2022-08-21T02:07:27;100088.91;;;17.37;44.02
36600;BME280;35385;55.668;37.508;2022-08-21T02:08:28;100107.88;;;17.45;44.30
36600;BME280;35385;55.668;37.508;2022-08-21T02:09:29;100114.97;;;17.46;44.29
36600;BME280;35385;55.668;37.508;2022-08-21T02:10:31;100040.63;;;17.00;44.42
36600;BME280;35385;55.668;37.508;2022-08-21T02:11:32;100106.34;;;17.42;44.26
36600;BME280;35385;55.668;37.508;2022-08-21T02:12:33;100108.91;;;17.44;44.44
36600;BME280;35385;55.668;37.508;2022-08-21T02:13:54;100106.81;;;17.38;44.47
36600;BME280;35385;55.668;37.508;2022-08-21T02:14:54;100082.47;;;17.29;44.31
36600;BME280;35385;55.668;37.508;2022-08-21T02:15:55;100092.09;;;17.32;44.35
36600;BME280;35385;55.668;37.508;2022-08-21T02:16:56;100110.91;;;17.42;44.27
36600;BME280;35385;55.668;37.508;2022-08-21T02:17:59;100084.34;;;17.29;44.38
36600;BME280;35385;55.668;37.508;2022-08-21T02:19:01;100060.56;;;17.07;44.52
36600;BME280;35385;55.668;37.508;2022-08-21T02:20:02;100030.59;;;16.92;44.37
36600;BME280;35385;55.668;37.508;2022-08-21T02:21:05;100104.84;;;17.48;44.75
36600;BME280;35385;55.668;37.508;2022-08-21T02:22:05;100118.69;;;17.45;44.33
36600;BME280;35385;55.668;37.508;2022-08-21T02:23:07;100078.34;;;17.43;44.38
36600;BME280;35385;55.668;37.508;2022-08-21T02:24:09;100107.63;;;17.56;44.36
36600;BME280;35385;55.668;37.508;2022-08-21T02:25:09;100033.72;;;17.05;43.99
36600;BME280;35385;55.668;37.508;2022-08-21T02:26:10;100122.41;;;17.44;44.06
36600;BME280;35385;55.668;37.508;2022-08-21T02:27:11;100102.81;;;17.42;44.20
36600;BME280;35385;55.668;37.508;2022-08-21T02:28:13;100103.44;;;17.36;44.38
36600;BME280;35385;55.668;37.508;2022-08-21T02:29:14;100118.47;;;17.38;44.27
36600;BME280;35385;55.668;37.508;2022-08-21T02:30:18;100127.03;;;17.33;44.38
36600;BME280;35385;55.668;37.508;2022-08-21T02:31:19;100028.72;;;16.84;44.90
36600;BME280;35385;55.668;37.508;2022-08-21T02:32:19;100078.88;;;17.21;44.37
36600;BME280;35385;55.668;37.508;2022-08-21T02:33:21;100113.53;;;17.33;44.32
36600;BME280;35385;55.668;37.508;2022-08-21T02:34:22;100117.78;;;17.36;44.46
36600;BME280;35385;55.668;37.508;2022-08-21T02:35:23;100121.28;;;17.28;44.27
36600;BME280;35385;55.668;37.508;2022-08-21T02:36:24;99977.88;;;16.54;44.53
36600;BME280;35385;55.668;37.508;2022-08-21T02:37:24;100105.78;;;17.30;44.50
36600;BME280;35385;55.668;37.508;2022-08-21T02:38:28;100028.03;;;16.82;44.66
36600;BME280;35385;55.668;37.508;2022-08-21T02:39:29;100051.56;;;16.98;44.71
36600;BME280;35385;55.668;37.508;2022-08-21T02:40:33;100124.88;;;17.37;44.62
36600;BME280;35385;55.668;37.508;2022-08-21T02:41:34;100035.16;;;16.91;44.53
36600;BME280;35385;55.668;37.508;2022-08-21T02:42:34;100118.47;;;17.38;44.46
36600;BME280;35385;55.668;37.508;2022-08-21T02:43:35;100123.03;;;17.38;44.56
36600;BME280;35385;55.668;37.508;2022-08-21T02:44:36;100100.53;;;17.29;44.24
36600;BME280;35385;55.668;37.508;2022-08-21T02:45:37;100114.22;;;17.36;44.26
36600;BME280;35385;55.668;37.508;2022-08-21T02:46:38;100109.84;;;17.35;44.60
36600;BME280;35385;55.668;37.508;2022-08-21T02:47:39;100125.56;;;17.39;44.73
36600;BME280;35385;55.668;37.508;2022-08-21T02:48:40;100117.94;;;17.35;44.56
36600;BME280;35385;55.668;37.508;2022-08-21T02:49:41;100109.47;;;17.29;44.58
36600;BME280;35385;55.668;37.508;2022-08-21T02:50:45;100116.00;;;17.45;44.75
36600;BME280;35385;55.668;37.508;2022-08-21T02:51:46;100123.56;;;17.41;44.42
36600;BME280;35385;55.668;37.508;2022-08-21T02:52:46;100112.75;;;17.41;44.38
36600;BME280;35385;55.668;37.508;2022-08-21T02:53:47;100110.22;;;17.40;44.58
36600;BME280;35385;55.668;37.508;2022-08-21T02:54:48;100128.13;;;17.41;44.40
36600;BME280;35385;55.668;37.508;2022-08-21T02:55:50;100121.31;;;17.37;44.73
36600;BME280;35385;55.668;37.508;2022-08-21T02:56:51;100124.03;;;17.37;44.57
36600;BME280;35385;55.668;37.508;2022-08-21T02:57:53;100112.03;;;17.31;44.89
36600;BME280;35385;55.668;37.508;2022-08-21T02:58:54;100039.69;;;16.91;44.52
36600;BME280;35385;55.668;37.508;2022-08-21T02:59:54;100102.53;;;17.27;44.44
36600;BME280;35385;55.668;37.508;2022-08-21T03:00:55;100103.38;;;17.27;44.77
36600;BME280;35385;55.668;37.508;2022-08-21T03:01:55;100089.91;;;17.27;44.58
36600;BME280;35385;55.668;37.508;2022-08-21T03:02:57;100116.25;;;17.33;44.61
36600;BME280;35385;55.668;37.508;2022-08-21T03:03:57;100049.88;;;16.97;44.40
36600;BME280;35385;55.668;37.508;2022-08-21T03:04:58;100112.75;;;17.41;44.52
36600;BME280;35385;55.668;37.508;2022-08-21T03:05:58;100100.72;;;17.36;44.47
36600;BME280;35385;55.668;37.508;2022-08-21T03:06:59;100043.78;;;16.95;44.38
36600;BME280;35385;55.668;37.508;2022-08-21T03:08:02;100119.69;;;17.44;44.68
36600;BME280;35385;55.668;37.508;2022-08-21T03:09:02;100094.59;;;17.25;44.46
36600;BME280;35385;55.668;37.508;2022-08-21T03:10:04;100138.78;;;17.50;44.61
36600;BME280;35385;55.668;37.508;2022-08-21T03:11:05;100128.31;;;17.47;44.38
36600;BME280;35385;55.668;37.508;2022-08-21T03:12:06;100052.13;;;17.02;44.53
36600;BME280;35385;55.668;37.508;2022-08-21T03:13:08;100111.59;;;17.44;44.45
36600;BME280;35385;55.668;37.508;2022-08-21T03:14:08;100122.06;;;17.47;44.62
36600;BME280;35385;55.668;37.508;2022-08-21T03:15:11;100109.91;;;17.43;44.39
36600;BME280;35385;55.668;37.508;2022-08-21T03:16:12;100116.03;;;17.53;44.71
36600;BME280;35385;55.668;37.508;2022-08-21T03:17:13;100117.19;;;17.50;44.57
36600;BME280;35385;55.668;37.508;2022-08-21T03:18:13;100104.50;;;17.43;44.44
36600;BME280;35385;55.668;37.508;2022-08-21T03:19:14;100119.09;;;17.58;44.29
36600;BME280;35385;55.668;37.508;2022-08-21T03:20:17;100121.66;;;17.59;44.42
36600;BME280;35385;55.668;37.508;2022-08-21T03:21:18;100124.50;;;17.58;44.26
36600;BME280;35385;55.668;37.508;2022-08-21T03:22:19;100109.56;;;17.46;44.12
36600;BME280;35385;55.668;37.508;2022-08-21T03:23:19;100046.38;;;17.05;44.29
36600;BME280;35385;55.668;37.508;2022-08-21T03:24:20;100122.91;;;17.47;44.54
36600;BME280;35385;55.668;37.508;2022-08-21T03:25:22;100112.59;;;17.43;44.25
36600;BME280;35385;55.668;37.508;2022-08-21T03:26:23;100089.94;;;17.36;44.48
36600;BME280;35385;55.668;37.508;2022-08-21T03:27:25;100121.16;;;17.38;44.62
36600;BME280;35385;55.668;37.508;2022-08-21T03:28:27;100128.53;;;17.54;44.21
36600;BME280;35385;55.668;37.508;2022-08-21T03:29:27;100133.31;;;17.60;44.29
36600;BME280;35385;55.668;37.508;2022-08-21T03:30:29;100066.22;;;17.21;44.10
36600;BME280;35385;55.668;37.508;2022-08-21T03:31:31;100125.44;;;17.49;44.36
36600;BME280;35385;55.668;37.508;2022-08-21T03:32:31;100113.94;;;17.47;44.65
36600;BME280;35385;55.668;37.508;2022-08-21T03:33:32;100128.00;;;17.50;44.39
36600;BME280;35385;55.668;37.508;2022-08-21T03:34:33;100130.84;;;17.49;44.66
36600;BME280;35385;55.668;37.508;2022-08-21T03:35:33;100138.09;;;17.48;44.23
36600;BME280;35385;55.668;37.508;2022-08-21T03:36:34;100133.03;;;17.45;44.98
36600;BME280;35385;55.668;37.508;2022-08-21T03:37:35;100082.72;;;17.18;44.71
36600;BME280;35385;55.668;37.508;2022-08-21T03:38:36;100128.53;;;17.54;44.73
36600;BME280;35385;55.668;37.508;2022-08-21T03:39:37;100136.47;;;17.55;44.54
36600;BME280;35385;55.668;37.508;2022-08-21T03:40:38;100129.53;;;17.53;44.69
36600;BME280;35385;55.668;37.508;2022-08-21T03:41:38;100136.00;;;17.60;44.72
36600;BME280;35385;55.668;37.508;2022-08-21T03:42:39;100139.78;;;17.67;44.11
36600;BME280;35385;55.668;37.508;2022-08-21T03:43:39;100034.53;;;17.23;44.53
36600;BME280;35385;55.668;37.508;2022-08-21T03:44:40;100131.81;;;17.65;44.31
36600;BME280;35385;55.668;37.508;2022-08-21T03:45:40;100133.22;;;17.70;44.13
36600;BME280;35385;55.668;37.508;2022-08-21T03:46:41;100130.34;;;17.71;43.94
36600;BME280;35385;55.668;37.508;2022-08-21T03:48:03;100133.94;;;17.80;43.68
36600;BME280;35385;55.668;37.508;2022-08-21T03:49:04;100130.22;;;17.81;43.71
36600;BME280;35385;55.668;37.508;2022-08-21T03:50:05;100139.84;;;17.83;43.78
36600;BME280;35385;55.668;37.508;2022-08-21T03:51:06;100134.63;;;17.82;43.72
36600;BME280;35385;55.668;37.508;2022-08-21T03:52:07;100074.25;;;17.39;43.85
36600;BME280;35385;55.668;37.508;2022-08-21T03:53:09;100147.59;;;17.78;43.97
36600;BME280;35385;55.668;37.508;2022-08-21T03:54:10;100099.34;;;17.57;43.53
36600;BME280;35385;55.668;37.508;2022-08-21T03:55:10;100131.69;;;17.75;43.62
36600;BME280;35385;55.668;37.508;2022-08-21T03:56:11;100131.38;;;17.78;43.54
36600;BME280;35385;55.668;37.508;2022-08-21T03:57:12;100145.44;;;17.82;43.35
36600;BME280;35385;55.668;37.508;2022-08-21T03:58:14;100141.41;;;17.86;43.49
36600;BME280;35385;55.668;37.508;2022-08-21T03:59:15;100127.88;;;17.86;43.85
36600;BME280;35385;55.668;37.508;2022-08-21T04:00:17;100134.47;;;17.91;43.41
36600;BME280;35385;55.668;37.508;2022-08-21T04:01:19;100124.34;;;17.93;43.39
36600;BME280;35385;55.668;37.508;2022-08-21T04:02:20;100148.53;;;17.95;43.31
36600;BME280;35385;55.668;37.508;2022-08-21T04:03:21;100134.16;;;17.94;43.17
36600;BME280;35385;55.668;37.508;2022-08-21T04:04:22;100133.47;;;17.92;43.36
36600;BME280;35385;55.668;37.508;2022-08-21T04:05:22;100106.22;;;17.78;43.59
36600;BME280;35385;55.668;37.508;2022-08-21T04:06:30;100122.97;;;17.89;43.19
36600;BME280;35385;55.668;37.508;2022-08-21T04:07:30;100126.06;;;17.94;43.10
36600;BME280;35385;55.668;37.508;2022-08-21T04:08:31;100128.47;;;18.06;43.22
36600;BME280;35385;55.668;37.508;2022-08-21T04:09:31;100088.53;;;17.83;43.12
36600;BME280;35385;55.668;37.508;2022-08-21T04:10:35;100128.66;;;18.12;42.75
36600;BME280;35385;55.668;37.508;2022-08-21T04:11:36;100119.41;;;18.23;42.71
36600;BME280;35385;55.668;37.508;2022-08-21T04:12:37;100117.00;;;18.20;42.71
36600;BME280;35385;55.668;37.508;2022-08-21T04:13:37;100113.44;;;18.03;43.22
36600;BME280;35385;55.668;37.508;2022-08-21T04:14:38;100120.91;;;18.17;42.65
36600;BME280;35385;55.668;37.508;2022-08-21T04:15:38;100113.13;;;18.22;42.56
36600;BME280;35385;55.668;37.508;2022-08-21T04:16:39;100053.78;;;17.96;42.43
36600;BME280;35385;55.668;37.508;2022-08-21T04:17:41;100124.53;;;18.42;42.37
36600;BME280;35385;55.668;37.508;2022-08-21T04:18:41;100124.53;;;18.42;42.25
36600;BME280;35385;55.668;37.508;2022-08-21T04:19:42;100059.69;;;18.00;42.12
36600;BME280;35385;55.668;37.508;2022-08-21T04:20:45;100119.28;;;18.49;42.16
36600;BME280;35385;55.668;37.508;2022-08-21T04:21:46;100115.38;;;18.35;42.24
36600;BME280;35385;55.668;37.508;2022-08-21T04:22:47;100055.47;;;17.97;42.01
36600;BME280;35385;55.668;37.508;2022-08-21T04:23:48;100128.25;;;18.41;42.37
36600;BME280;35385;55.668;37.508;2022-08-21T04:24:49;100116.34;;;18.18;42.64
36600;BME280;35385;55.668;37.508;2022-08-21T04:25:50;100134.13;;;18.28;42.28
36600;BME280;35385;55.668;37.508;2022-08-21T04:26:51;100123.16;;;18.38;42.22
36600;BME280;35385;55.668;37.508;2022-08-21T04:27:51;100097.75;;;18.23;41.84
36600;BME280;35385;55.668;37.508;2022-08-21T04:28:52;100107.94;;;18.37;41.99
36600;BME280;35385;55.668;37.508;2022-08-21T04:29:52;100118.94;;;18.44;42.05
36600;BME280;35385;55.668;37.508;2022-08-21T04:30:53;100128.06;;;18.43;41.98
36600;BME280;35385;55.668;37.508;2022-08-21T04:31:54;100139.56;;;18.45;42.14
36600;BME280;35385;55.668;37.508;2022-08-21T04:32:56;100131.31;;;18.46;42.02
36600;BME280;35385;55.668;37.508;2022-08-21T04:33:57;100140.91;;;18.49;42.26
36600;BME280;35385;55.668;37.508;2022-08-21T04:35:04;100024.88;;;17.89;41.96
36600;BME280;35385;55.668;37.508;2022-08-21T04:36:05;100133.31;;;18.44;42.33
36600;BME280;35385;55.668;37.508;2022-08-21T04:37:06;100128.59;;;18.54;41.95
36600;BME280;35385;55.668;37.508;2022-08-21T04:38:07;100115.41;;;18.43;42.21
36600;BME280;35385;55.668;37.508;2022-08-21T04:39:07;100122.56;;;18.60;42.34
36600;BME280;35385;55.668;37.508;2022-08-21T04:40:10;100119.66;;;18.62;41.89
36600;BME280;35385;55.668;37.508;2022-08-21T04:41:11;100131.16;;;18.64;41.94
36600;BME280;35385;55.668;37.508;2022-08-21T04:42:11;100141.66;;;18.59;41.82
36600;BME280;35385;55.668;37.508;2022-08-21T04:43:12;100104.78;;;18.58;41.50
36600;BME280;35385;55.668;37.508;2022-08-21T04:44:12;100116.50;;;18.75;41.35
36600;BME280;35385;55.668;37.508;2022-08-21T04:45:31;100135.94;;;18.94;41.50
36600;BME280;35385;55.668;37.508;2022-08-21T04:46:32;100134.75;;;18.81;41.34
36600;BME280;35385;55.668;37.508;2022-08-21T04:47:32;100072.19;;;18.59;41.70
36600;BME280;35385;55.668;37.508;2022-08-21T04:48:33;100132.72;;;18.99;41.32
36600;BME280;35385;55.668;37.508;2022-08-21T04:49:33;100137.63;;;19.12;40.60
36600;BME280;35385;55.668;37.508;2022-08-21T04:50:43;100136.78;;;19.11;40.80
36600;BME280;35385;55.668;37.508;2022-08-21T04:51:45;100139.31;;;19.21;40.31
36600;BME280;35385;55.668;37.508;2022-08-21T04:52:46;100067.59;;;18.68;40.76
36600;BME280;35385;55.668;37.508;2022-08-21T04:53:50;100146.25;;;19.07;40.64
36600;BME280;35385;55.668;37.508;2022-08-21T04:54:52;100132.03;;;19.13;40.58
36600;BME280;35385;55.668;37.508;2022-08-21T04:55:54;100065.56;;;18.86;40.48
36600;BME280;35385;55.668;37.508;2022-08-21T04:57:02;100138.44;;;19.45;40.03
36600;BME280;35385;55.668;37.508;2022-08-21T04:58:07;100138.09;;;19.56;40.40
36600;BME280;35385;55.668;37.508;2022-08-21T04:59:31;100138.28;;;19.54;40.05
36600;BME280;35385;55.668;37.508;2022-08-21T05:00:32;100050.47;;;19.08;40.15
36600;BME280;35385;55.668;37.508;2022-08-21T05:01:34;100138.75;;;19.74;40.24
36600;BME280;35385;55.668;37.508;2022-08-21T05:02:36;100145.56;;;19.54;40.12
36600;BME280;35385;55.668;37.508;2022-08-21T05:03:37;100144.34;;;19.72;40.23
36600;BME280;35385;55.668;37.508;2022-08-21T05:04:42;100138.75;;;19.66;40.13
36600;BME280;35385;55.668;37.508;2022-08-21T05:05:45;100123.88;;;19.46;39.97
36600;BME280;35385;55.668;37.508;2022-08-21T05:06:46;100146.84;;;19.82;39.21
36600;BME280;35385;55.668;37.508;2022-08-21T05:07:48;100136.75;;;20.07;39.07
36600;BME280;35385;55.668;37.508;2022-08-21T05:08:51;100145.34;;;20.19;38.52
36600;BME280;35385;55.668;37.508;2022-08-21T05:09:53;100138.91;;;20.20;38.44
36600;BME280;35385;55.668;37.508;2022-08-21T05:10:54;100139.53;;;20.30;38.33
36600;BME280;35385;55.668;37.508;2022-08-21T05:11:55;100142.53;;;20.43;38.16
36600;BME280;35385;55.668;37.508;2022-08-21T05:12:56;100138.38;;;20.55;38.12
36600;BME280;35385;55.668;37.508;2022-08-21T05:13:58;100140.56;;;20.60;38.23
36600;BME280;35385;55.668;37.508;2022-08-21T05:14:58;100021.94;;;19.92;37.81
36600;BME280;35385;55.668;37.508;2022-08-21T05:15:59;100117.44;;;20.41;37.78
36600;BME280;35385;55.668;37.508;2022-08-21T05:16:59;100121.22;;;20.32;37.85
36600;BME280;35385;55.668;37.508;2022-08-21T05:18:00;100062.81;;;19.82;38.70
36600;BME280;35385;55.668;37.508;2022-08-21T05:19:00;100112.75;;;20.27;38.11
36600;BME280;35385;55.668;37.508;2022-08-21T05:20:01;100132.00;;;20.48;38.09